Cary, Mississippi
Current Conditions -  °F | °C
As of 8:53 PM on Monday 22 Dec 2014 (Local Time) from KTVR Reporting Station
Clear Clear  
Wind Chill: 62°   Ceiling: Unl
Heat Index: 62°   Visibility: 10mi
Dew Point: 58°   Wind: 3mph
Humidity: 86%   Direction: 190°S
Pressure: 29.66"   Gusts: NA
Location:  32.81°N, 90.93°W
Report Text: KTVR 230253Z AUTO 19003KT 10SM CLR 17/14 A2966 RMK AO2 SLP050 T01670144 51007
Loading
Personal Weather Stations






























Interactive Weather Map New forecast layout! Learn more

10-Day Weather Forecast

Advertisements
Track Severe Weather on mobile